createdAt,value
2023-05-19T00:00:48.963Z,1908.00
2023-05-19T00:01:47.595Z,1916.00
2023-05-19T00:02:47.672Z,1908.00
2023-05-19T00:03:47.563Z,1913.00
2023-05-19T00:04:47.568Z,1890.00
2023-05-19T00:05:47.594Z,1903.00
2023-05-19T00:06:47.548Z,1884.00
2023-05-19T00:07:47.547Z,1880.00
2023-05-19T00:08:47.552Z,1872.00
2023-05-19T00:09:47.528Z,1872.00
2023-05-19T00:10:47.522Z,1873.00
2023-05-19T00:11:47.530Z,1900.00
2023-05-19T00:12:47.529Z,1904.00
2023-05-19T00:13:47.521Z,1897.00
2023-05-19T00:14:47.521Z,1905.00
2023-05-19T00:15:47.560Z,1902.00
2023-05-19T00:16:47.509Z,1874.00
2023-05-19T00:17:47.547Z,1901.00
2023-05-19T00:18:47.577Z,1901.00
2023-05-19T00:19:47.521Z,1902.00
2023-05-19T00:20:47.523Z,1899.00
2023-05-19T00:21:47.514Z,1899.00
2023-05-19T00:22:47.537Z,1894.00
2023-05-19T00:23:47.541Z,1891.00
2023-05-19T00:24:47.525Z,1894.00
2023-05-19T00:25:47.511Z,1890.00
2023-05-19T00:26:47.509Z,1896.00
2023-05-19T00:27:47.507Z,1892.00
2023-05-19T00:28:47.491Z,1884.00
2023-05-19T00:29:47.497Z,1862.00
2023-05-19T00:30:47.492Z,1888.00
2023-05-19T00:31:47.593Z,1874.00
2023-05-19T00:32:47.482Z,1888.00
2023-05-19T00:33:47.489Z,1889.00
2023-05-19T00:34:47.459Z,1881.00
2023-05-19T00:35:47.468Z,1882.00
2023-05-19T00:36:47.478Z,1881.00
2023-05-19T00:37:47.440Z,1854.00
2023-05-19T00:38:47.441Z,1888.00
2023-05-19T00:39:47.446Z,1868.00
2023-05-19T00:40:47.514Z,1881.00
2023-05-19T00:41:47.490Z,1880.00
2023-05-19T00:42:47.420Z,1873.00
2023-05-19T00:43:47.428Z,1886.00
2023-05-19T00:44:47.409Z,1875.00
2023-05-19T00:45:47.417Z,1882.00
2023-05-19T00:46:47.417Z,1877.00
2023-05-19T00:47:47.426Z,1882.00
2023-05-19T00:48:47.414Z,1875.00
2023-05-19T00:49:47.409Z,1877.00
2023-05-19T00:50:47.421Z,1875.00
2023-05-19T00:51:47.402Z,1870.00
2023-05-19T00:52:47.402Z,1870.00
2023-05-19T00:53:47.410Z,1878.00
2023-05-19T00:54:47.405Z,1877.00
2023-05-19T00:55:47.422Z,1868.00
2023-05-19T00:56:47.398Z,1869.00
2023-05-19T00:57:47.426Z,1868.00
2023-05-19T00:58:47.402Z,1874.00
2023-05-19T00:59:47.420Z,1865.00
2023-05-19T01:00:47.465Z,1862.00
2023-05-19T01:01:47.387Z,1843.00
2023-05-19T01:02:47.467Z,1866.00
2023-05-19T01:03:47.438Z,1863.00
2023-05-19T01:04:47.376Z,1866.00
2023-05-19T01:05:47.447Z,1862.00
2023-05-19T01:06:47.437Z,1866.00
2023-05-19T01:07:47.453Z,1864.00
2023-05-19T01:08:47.412Z,1859.00
2023-05-19T01:09:47.388Z,1866.00
2023-05-19T01:10:47.381Z,1860.00
2023-05-19T01:11:47.444Z,1864.00
2023-05-19T01:12:47.365Z,1861.00
2023-05-19T01:13:47.361Z,1859.00
2023-05-19T01:14:47.414Z,1858.00
2023-05-19T01:15:47.434Z,1862.00
2023-05-19T01:16:47.474Z,1859.00
2023-05-19T01:17:47.422Z,1863.00
2023-05-19T01:18:47.427Z,1848.00
2023-05-19T01:19:47.442Z,1855.00
2023-05-19T01:20:47.356Z,1858.00
2023-05-19T01:21:47.363Z,1852.00
2023-05-19T01:22:47.348Z,1859.00
2023-05-19T01:23:47.396Z,1856.00
2023-05-19T01:24:47.373Z,1858.00
2023-05-19T01:25:47.432Z,1848.00
2023-05-19T01:26:47.377Z,1831.00
2023-05-19T01:27:47.352Z,1850.00
2023-05-19T01:28:47.354Z,1857.00
2023-05-19T01:29:47.404Z,1860.00
2023-05-19T01:30:47.370Z,1845.00
2023-05-19T01:31:47.389Z,1856.00
2023-05-19T01:32:47.298Z,1848.00
2023-05-19T01:33:47.264Z,1849.00
2023-05-19T01:34:47.251Z,1855.00
2023-05-19T01:35:47.244Z,1844.00
2023-05-19T01:36:47.232Z,1851.00
2023-05-19T01:37:47.252Z,1852.00
2023-05-19T01:38:47.245Z,1841.00
2023-05-19T01:39:47.259Z,1844.00
2023-05-19T01:40:47.236Z,1839.00
2023-05-19T01:41:47.262Z,1825.00
2023-05-19T01:42:47.242Z,1843.00
2023-05-19T01:43:47.248Z,1846.00
2023-05-19T01:44:47.257Z,1844.00
2023-05-19T01:45:47.315Z,1853.00
2023-05-19T01:46:47.244Z,1840.00
2023-05-19T01:47:47.254Z,1839.00
2023-05-19T01:48:47.228Z,1817.00
2023-05-19T01:49:47.226Z,1835.00
2023-05-19T01:50:47.222Z,1836.00
2023-05-19T01:51:47.214Z,1838.00
2023-05-19T01:52:47.208Z,1839.00
2023-05-19T01:53:47.225Z,1850.00
2023-05-19T01:54:47.221Z,1835.00
2023-05-19T01:55:47.226Z,1826.00
2023-05-19T01:56:47.258Z,1834.00
2023-05-19T01:57:47.279Z,1837.00
2023-05-19T01:58:47.288Z,1838.00
2023-05-19T01:59:47.442Z,1832.00
2023-05-19T02:00:47.391Z,1831.00
2023-05-19T02:01:47.493Z,1834.00
2023-05-19T02:02:47.431Z,1831.00
2023-05-19T02:03:47.485Z,1835.00
2023-05-19T02:04:47.484Z,1830.00
2023-05-19T02:05:47.491Z,1825.00
2023-05-19T02:06:47.552Z,1820.00
2023-05-19T02:07:47.478Z,1826.00
2023-05-19T02:08:47.487Z,1817.00
2023-05-19T02:09:47.525Z,1817.00
2023-05-19T02:10:47.532Z,1823.00
2023-05-19T02:11:47.570Z,1824.00
2023-05-19T02:12:47.586Z,1827.00
2023-05-19T02:13:47.520Z,1827.00
2023-05-19T02:14:47.525Z,1832.00
2023-05-19T02:15:47.593Z,1830.00
2023-05-19T02:16:47.592Z,1829.00
2023-05-19T02:17:47.561Z,1817.00
2023-05-19T02:18:47.565Z,1834.00
2023-05-19T02:19:47.521Z,1830.00
2023-05-19T02:20:47.522Z,1827.00
2023-05-19T02:21:47.531Z,1822.00
2023-05-19T02:22:47.511Z,1828.00
2023-05-19T02:23:47.509Z,1827.00
2023-05-19T02:24:47.510Z,1823.00
2023-05-19T02:25:47.531Z,1818.00
2023-05-19T02:26:47.518Z,1820.00
2023-05-19T02:27:47.533Z,1814.00
2023-05-19T02:28:47.563Z,1818.00
2023-05-19T02:29:47.498Z,1822.00
2023-05-19T02:30:47.489Z,1815.00
2023-05-19T02:31:47.538Z,1801.00
2023-05-19T02:32:47.614Z,1823.00
2023-05-19T02:33:47.492Z,1816.00
2023-05-19T02:34:47.513Z,1807.00
2023-05-19T02:35:47.530Z,1819.00
2023-05-19T02:36:47.572Z,1806.00
2023-05-19T02:37:47.586Z,1808.00
2023-05-19T02:38:47.604Z,1801.00
2023-05-19T02:39:47.637Z,1809.00
2023-05-19T02:40:47.661Z,1820.00
2023-05-19T02:41:47.686Z,1810.00
2023-05-19T02:42:47.690Z,1806.00
2023-05-19T02:43:47.723Z,1805.00
2023-05-19T02:44:47.744Z,1805.00
2023-05-19T02:45:47.762Z,1803.00
2023-05-19T02:46:47.792Z,1808.00
2023-05-19T02:47:47.823Z,1805.00
2023-05-19T02:48:47.820Z,1784.00
2023-05-19T02:49:47.837Z,1783.00
2023-05-19T02:50:47.851Z,1757.00
2023-05-19T02:51:47.902Z,1746.00
2023-05-19T02:52:47.896Z,1730.00
2023-05-19T02:53:47.944Z,1711.00
2023-05-19T02:54:47.979Z,1683.00
2023-05-19T02:55:48.060Z,1649.00
2023-05-19T02:56:48.059Z,1617.00
2023-05-19T02:57:48.097Z,1614.00
2023-05-19T02:58:48.143Z,1588.00
2023-05-19T02:59:48.197Z,1549.00
2023-05-19T03:00:48.280Z,1542.00
2023-05-19T03:01:48.367Z,1515.00
2023-05-19T03:02:48.511Z,1503.00
2023-05-19T03:03:48.574Z,1485.00
2023-05-19T03:04:48.534Z,1467.00
2023-05-19T03:05:48.602Z,1437.00
2023-05-19T03:06:48.685Z,1417.00
2023-05-19T03:07:48.719Z,1410.00
2023-05-19T03:08:48.768Z,1379.00
2023-05-19T03:09:48.783Z,1366.00
2023-05-19T03:10:48.855Z,1351.00
2023-05-19T03:11:48.950Z,1334.00
2023-05-19T03:12:48.963Z,1311.00
2023-05-19T03:13:49.024Z,1288.00
2023-05-19T03:14:49.062Z,1278.00
2023-05-19T03:15:49.136Z,1256.00
2023-05-19T03:16:49.231Z,1238.00
2023-05-19T03:17:49.158Z,1227.00
2023-05-19T03:18:49.164Z,1206.00
2023-05-19T03:19:49.126Z,1192.00
2023-05-19T03:20:49.139Z,1193.00
2023-05-19T03:21:49.142Z,1171.00
2023-05-19T03:22:49.153Z,1167.00
2023-05-19T03:23:49.155Z,1154.00
2023-05-19T03:24:49.280Z,1137.00
2023-05-19T03:25:49.272Z,1127.00
2023-05-19T03:26:49.290Z,1115.00
2023-05-19T03:27:49.297Z,1116.00
2023-05-19T03:28:49.323Z,1100.00
2023-05-19T03:29:49.352Z,1092.00
2023-05-19T03:30:49.371Z,1067.00
2023-05-19T03:31:49.383Z,1076.00
2023-05-19T03:32:49.501Z,1066.00
2023-05-19T03:33:49.463Z,1063.00
2023-05-19T03:34:49.543Z,1050.00
2023-05-19T03:35:49.657Z,1045.00
2023-05-19T03:36:49.710Z,1033.00
2023-05-19T03:37:49.705Z,1037.00
2023-05-19T03:38:49.733Z,1033.00
2023-05-19T03:39:49.776Z,1013.00
2023-05-19T03:40:49.802Z,1019.00
2023-05-19T03:41:49.849Z,1014.00
2023-05-19T03:42:49.858Z,1003.00
2023-05-19T03:43:49.885Z,1011.00
2023-05-19T03:44:49.909Z,994.00
2023-05-19T03:45:49.939Z,982.00
2023-05-19T03:46:50.005Z,976.00
2023-05-19T03:47:50.076Z,983.00
2023-05-19T03:48:50.046Z,982.00
2023-05-19T03:49:50.072Z,977.00
2023-05-19T03:50:50.117Z,967.00
2023-05-19T03:51:50.154Z,979.00
2023-05-19T03:52:50.182Z,951.00
2023-05-19T03:53:50.208Z,941.00
2023-05-19T03:54:50.249Z,952.00
2023-05-19T03:55:50.295Z,917.00
2023-05-19T03:56:50.327Z,936.00
2023-05-19T03:57:50.344Z,927.00
2023-05-19T03:58:50.348Z,928.00
2023-05-19T03:59:50.380Z,924.00
2023-05-19T04:00:50.491Z,906.00
2023-05-19T04:01:50.508Z,894.00
2023-05-19T04:02:50.572Z,906.00
2023-05-19T04:03:50.533Z,903.00
2023-05-19T04:04:50.745Z,897.00
2023-05-19T04:05:50.620Z,897.00
2023-05-19T04:06:50.660Z,895.00
2023-05-19T04:07:50.684Z,892.00
2023-05-19T04:08:50.741Z,893.00
2023-05-19T04:09:50.759Z,882.00
2023-05-19T04:10:50.792Z,879.00
2023-05-19T04:11:50.853Z,863.00
2023-05-19T04:12:50.905Z,871.00
2023-05-19T04:13:50.938Z,862.00
2023-05-19T04:14:50.987Z,876.00
2023-05-19T04:15:51.086Z,868.00
2023-05-19T04:16:51.110Z,850.00
2023-05-19T04:17:51.146Z,851.00
2023-05-19T04:18:51.229Z,842.00
2023-05-19T04:19:51.220Z,845.00
2023-05-19T04:20:51.268Z,844.00
2023-05-19T04:21:51.312Z,836.00
2023-05-19T04:22:51.362Z,839.00
2023-05-19T04:23:51.402Z,842.00
2023-05-19T04:24:51.429Z,822.00
2023-05-19T04:25:51.473Z,839.00
2023-05-19T04:26:51.531Z,826.00
2023-05-19T04:27:51.583Z,822.00
2023-05-19T04:28:51.620Z,835.00
2023-05-19T04:29:51.681Z,824.00
2023-05-19T04:30:51.885Z,830.00
2023-05-19T04:31:51.797Z,829.00
2023-05-19T04:32:51.896Z,819.00
2023-05-19T04:33:51.900Z,810.00
2023-05-19T04:34:51.961Z,828.00
2023-05-19T04:35:52.012Z,799.00
2023-05-19T04:36:53.502Z,825.00
2023-05-19T04:37:52.086Z,811.00
2023-05-19T04:38:52.105Z,810.00
2023-05-19T04:39:52.166Z,816.00
2023-05-19T04:40:52.196Z,809.00
2023-05-19T04:41:52.252Z,822.00
2023-05-19T04:42:52.382Z,807.00
2023-05-19T04:43:52.334Z,804.00
2023-05-19T04:44:52.385Z,802.00
2023-05-19T04:45:52.466Z,804.00
2023-05-19T04:46:52.485Z,810.00
2023-05-19T04:47:52.587Z,802.00
2023-05-19T04:48:52.557Z,794.00
2023-05-19T04:49:52.565Z,795.00
2023-05-19T04:50:52.581Z,795.00
2023-05-19T04:51:55.588Z,797.00
2023-05-19T04:52:52.595Z,814.00
2023-05-19T04:53:52.593Z,803.00
2023-05-19T04:54:52.601Z,806.00
2023-05-19T04:55:52.624Z,810.00
2023-05-19T04:56:52.648Z,789.00
2023-05-19T04:57:52.633Z,797.00
2023-05-19T04:58:52.656Z,808.00
2023-05-19T04:59:52.664Z,798.00
2023-05-19T05:00:52.643Z,793.00
2023-05-19T05:01:52.773Z,791.00
2023-05-19T05:02:52.724Z,787.00
2023-05-19T05:03:52.705Z,798.00
2023-05-19T05:04:52.678Z,806.00
2023-05-19T05:05:52.688Z,795.00
2023-05-19T05:06:52.707Z,807.00
2023-05-19T05:07:52.718Z,785.00
2023-05-19T05:08:52.718Z,795.00
2023-05-19T05:09:52.758Z,795.00
2023-05-19T05:10:52.733Z,798.00
2023-05-19T05:11:52.755Z,809.00
2023-05-19T05:12:52.754Z,802.00
2023-05-19T05:13:52.778Z,800.00
2023-05-19T05:14:52.769Z,803.00
2023-05-19T05:15:52.810Z,792.00
2023-05-19T05:16:52.832Z,767.00
2023-05-19T05:17:52.823Z,796.00
2023-05-19T05:18:52.831Z,787.00
2023-05-19T05:19:52.843Z,791.00
2023-05-19T05:20:52.842Z,792.00
2023-05-19T05:21:52.847Z,794.00
2023-05-19T05:22:52.848Z,794.00
2023-05-19T05:23:52.860Z,795.00
2023-05-19T05:24:52.863Z,797.00
2023-05-19T05:25:52.880Z,800.00
2023-05-19T05:26:52.916Z,791.00
2023-05-19T05:27:52.893Z,789.00
2023-05-19T05:28:52.910Z,796.00
2023-05-19T05:29:53.053Z,784.00
2023-05-19T05:30:52.933Z,781.00
2023-05-19T05:31:52.917Z,802.00
2023-05-19T05:32:53.014Z,791.00
2023-05-19T05:33:52.955Z,785.00
2023-05-19T05:34:52.987Z,792.00
2023-05-19T05:35:53.044Z,793.00
2023-05-19T05:36:53.140Z,786.00
2023-05-19T05:37:53.148Z,787.00
2023-05-19T05:38:53.206Z,808.00
2023-05-19T05:39:53.263Z,797.00
2023-05-19T05:40:53.321Z,796.00
2023-05-19T05:41:53.406Z,807.00
2023-05-19T05:42:53.425Z,798.00
2023-05-19T05:43:53.498Z,812.00
2023-05-19T05:44:53.526Z,810.00
2023-05-19T05:45:53.614Z,808.00
2023-05-19T05:46:53.650Z,807.00
2023-05-19T05:47:53.717Z,815.00
2023-05-19T05:48:53.798Z,813.00
2023-05-19T05:49:53.799Z,829.00
2023-05-19T05:50:53.862Z,811.00
2023-05-19T05:52:04.985Z,805.00
2023-05-19T05:52:54.908Z,805.00
2023-05-19T05:53:53.924Z,808.00
2023-05-19T05:54:53.927Z,813.00
2023-05-19T05:55:53.923Z,819.00
2023-05-19T05:56:53.942Z,810.00
2023-05-19T05:57:53.933Z,816.00
2023-05-19T05:58:53.956Z,812.00
2023-05-19T05:59:53.958Z,817.00
2023-05-19T06:00:53.941Z,813.00
2023-05-19T06:01:53.974Z,816.00
2023-05-19T06:02:54.089Z,807.00
2023-05-19T06:03:53.986Z,811.00
2023-05-19T06:04:53.995Z,816.00
2023-05-19T06:05:54.073Z,824.00
2023-05-19T06:06:54.059Z,811.00
2023-05-19T06:07:54.119Z,795.00
2023-05-19T06:08:54.135Z,791.00
2023-05-19T06:09:54.193Z,799.00
2023-05-19T06:10:54.239Z,803.00
2023-05-19T06:11:54.310Z,803.00
2023-05-19T06:12:54.356Z,809.00
2023-05-19T06:13:54.427Z,804.00
2023-05-19T06:14:54.467Z,812.00
2023-05-19T06:15:54.512Z,805.00
2023-05-19T06:16:54.558Z,820.00
2023-05-19T06:17:54.650Z,807.00
2023-05-19T06:18:54.668Z,805.00
2023-05-19T06:19:54.705Z,817.00
2023-05-19T06:20:54.751Z,816.00
2023-05-19T06:21:54.777Z,795.00
2023-05-19T06:22:54.836Z,824.00
2023-05-19T06:23:54.900Z,809.00
2023-05-19T06:24:54.938Z,815.00
2023-05-19T06:25:54.988Z,816.00
2023-05-19T06:26:55.056Z,812.00
2023-05-19T06:27:55.062Z,818.00
2023-05-19T06:28:55.122Z,832.00
2023-05-19T06:29:55.181Z,837.00
2023-05-19T06:30:55.314Z,832.00
2023-05-19T06:31:55.368Z,841.00
2023-05-19T06:32:55.411Z,844.00
2023-05-19T06:33:55.369Z,832.00
2023-05-19T06:34:55.414Z,845.00
2023-05-19T06:35:55.480Z,853.00
2023-05-19T06:36:55.523Z,850.00
2023-05-19T06:37:55.553Z,851.00
2023-05-19T06:38:55.600Z,843.00
2023-05-19T06:39:55.654Z,843.00
2023-05-19T06:40:55.702Z,829.00
2023-05-19T06:41:55.744Z,834.00
2023-05-19T06:42:55.793Z,840.00
2023-05-19T06:43:55.817Z,834.00
2023-05-19T06:44:55.906Z,838.00
2023-05-19T06:45:55.911Z,833.00
2023-05-19T06:46:55.980Z,828.00
2023-05-19T06:47:56.072Z,815.00
2023-05-19T06:48:56.056Z,834.00
2023-05-19T06:49:56.126Z,829.00
2023-05-19T06:50:56.206Z,804.00
2023-05-19T06:51:56.216Z,828.00
2023-05-19T06:52:56.223Z,824.00
2023-05-19T06:53:56.252Z,818.00
2023-05-19T06:54:56.301Z,828.00
2023-05-19T06:55:59.814Z,834.00
2023-05-19T06:56:56.333Z,835.00
2023-05-19T06:57:56.334Z,838.00
2023-05-19T06:58:56.355Z,847.00
2023-05-19T06:59:56.322Z,891.00
2023-05-19T07:00:56.375Z,951.00
2023-05-19T07:01:56.389Z,975.00
2023-05-19T07:02:56.419Z,1014.00
2023-05-19T07:03:56.412Z,1045.00
2023-05-19T07:04:56.354Z,1057.00
2023-05-19T07:05:56.362Z,1060.00
2023-05-19T07:06:56.407Z,1087.00
2023-05-19T07:07:56.337Z,1107.00
2023-05-19T07:08:56.348Z,1122.00
2023-05-19T07:09:56.356Z,1127.00
2023-05-19T07:10:56.364Z,1138.00
2023-05-19T07:11:56.366Z,1136.00
2023-05-19T07:12:56.379Z,1152.00
2023-05-19T07:13:56.392Z,1150.00
2023-05-19T07:14:56.384Z,1160.00
2023-05-19T07:15:56.430Z,1162.00
2023-05-19T07:16:56.458Z,1179.00
2023-05-19T07:17:56.419Z,1183.00
2023-05-19T07:18:56.440Z,1194.00
2023-05-19T07:19:56.395Z,1200.00
2023-05-19T07:20:56.393Z,1209.00
2023-05-19T07:21:56.406Z,1217.00
2023-05-19T07:22:56.401Z,1218.00
2023-05-19T07:23:56.438Z,1233.00
2023-05-19T07:24:56.411Z,1239.00
2023-05-19T07:25:56.409Z,1245.00
2023-05-19T07:26:56.420Z,1257.00
2023-05-19T07:27:56.438Z,1267.00
2023-05-19T07:28:56.419Z,1268.00
2023-05-19T07:29:56.408Z,1287.00
2023-05-19T07:30:56.397Z,1302.00
2023-05-19T07:31:56.473Z,1333.00
2023-05-19T07:32:56.447Z,1362.00
2023-05-19T07:33:56.422Z,1403.00
2023-05-19T07:34:56.483Z,1433.00
2023-05-19T07:35:56.511Z,1487.00
2023-05-19T07:36:56.556Z,1526.00
2023-05-19T07:37:56.586Z,1585.00
2023-05-19T07:38:56.650Z,1634.00
2023-05-19T07:39:56.730Z,1688.00
2023-05-19T07:40:56.694Z,1726.00
2023-05-19T07:41:56.737Z,1760.00
2023-05-19T07:42:56.763Z,1794.00
2023-05-19T07:43:56.807Z,1812.00
2023-05-19T07:44:56.847Z,1839.00
2023-05-19T07:45:56.907Z,1848.00
2023-05-19T07:46:56.955Z,1865.00
2023-05-19T07:47:57.013Z,1867.00
2023-05-19T07:48:57.014Z,1877.00
2023-05-19T07:49:57.091Z,1871.00
2023-05-19T07:50:57.124Z,1881.00
2023-05-19T07:51:57.222Z,1876.00
2023-05-19T07:52:57.198Z,1862.00
2023-05-19T07:53:57.309Z,1863.00
2023-05-19T07:54:57.381Z,1852.00
2023-05-19T07:55:58.731Z,1845.00
2023-05-19T07:56:57.395Z,1851.00
2023-05-19T07:57:57.443Z,1836.00
2023-05-19T07:58:57.454Z,1833.00
2023-05-19T07:59:57.514Z,1822.00
2023-05-19T08:00:57.554Z,1805.00
2023-05-19T08:01:57.568Z,1809.00
2023-05-19T08:02:57.733Z,1793.00
2023-05-19T08:03:57.780Z,1785.00
2023-05-19T08:04:57.823Z,1790.00
2023-05-19T08:05:57.717Z,1749.00
2023-05-19T08:06:57.734Z,1699.00
2023-05-19T08:07:57.774Z,1638.00
2023-05-19T08:08:57.818Z,1584.00
2023-05-19T08:09:57.852Z,1533.00
2023-05-19T08:10:57.877Z,1519.00
2023-05-19T08:11:57.837Z,1462.00
2023-05-19T08:12:57.862Z,1408.00
2023-05-19T08:13:57.854Z,1358.00
2023-05-19T08:15:00.374Z,1326.00
2023-05-19T08:15:57.897Z,1300.00
2023-05-19T08:16:57.865Z,1240.00
2023-05-19T08:17:57.865Z,1193.00
2023-05-19T08:18:57.900Z,1173.00
2023-05-19T08:19:57.839Z,1128.00
2023-05-19T08:20:57.834Z,1094.00
2023-05-19T08:21:57.863Z,1058.00
2023-05-19T08:22:57.838Z,1030.00
2023-05-19T08:23:57.842Z,1000.00
2023-05-19T08:24:57.853Z,988.00
2023-05-19T08:25:57.827Z,947.00
2023-05-19T08:26:57.829Z,936.00
2023-05-19T08:27:57.822Z,901.00
2023-05-19T08:28:57.820Z,890.00
2023-05-19T08:29:57.814Z,860.00
2023-05-19T08:30:57.875Z,833.00
2023-05-19T08:31:57.862Z,815.00
2023-05-19T08:32:57.830Z,816.00
2023-05-19T08:33:57.828Z,771.00
2023-05-19T08:34:57.813Z,759.00
2023-05-19T08:35:57.852Z,754.00
2023-05-19T08:36:57.829Z,719.00
2023-05-19T08:37:57.821Z,695.00
2023-05-19T08:38:57.873Z,692.00
2023-05-19T08:39:57.840Z,674.00
2023-05-19T08:40:57.833Z,661.00
2023-05-19T08:41:57.963Z,657.00
2023-05-19T08:42:57.946Z,647.00
2023-05-19T08:43:58.035Z,638.00
2023-05-19T08:44:58.093Z,636.00
2023-05-19T08:45:58.142Z,621.00
2023-05-19T08:46:58.270Z,615.00
2023-05-19T08:47:58.294Z,617.00
2023-05-19T08:48:58.327Z,611.00
2023-05-19T08:49:58.392Z,607.00
2023-05-19T08:50:58.457Z,611.00
2023-05-19T08:51:58.619Z,616.00
2023-05-19T08:52:58.666Z,628.00
2023-05-19T08:53:58.598Z,631.00
2023-05-19T08:54:58.651Z,643.00
2023-05-19T08:55:58.671Z,648.00
2023-05-19T08:56:58.722Z,659.00
2023-05-19T08:57:58.749Z,660.00
2023-05-19T08:58:58.792Z,663.00
2023-05-19T08:59:58.845Z,681.00
2023-05-19T09:00:58.856Z,694.00
2023-05-19T09:01:58.876Z,717.00
2023-05-19T09:03:00.791Z,730.00
2023-05-19T09:04:00.030Z,730.00
2023-05-19T09:04:59.055Z,734.00
2023-05-19T09:05:58.950Z,740.00
2023-05-19T09:06:58.930Z,756.00
2023-05-19T09:07:58.895Z,782.00
2023-05-19T09:08:58.875Z,732.00
2023-05-19T09:09:58.873Z,741.00
2023-05-19T09:10:58.865Z,763.00
2023-05-19T09:11:58.866Z,789.00
2023-05-19T09:12:58.868Z,734.00
2023-05-19T09:13:58.854Z,735.00
2023-05-19T09:14:58.866Z,749.00
2023-05-19T09:15:58.831Z,780.00
2023-05-19T09:16:58.857Z,833.00
2023-05-19T09:17:58.860Z,884.00
2023-05-19T09:18:58.894Z,898.00
2023-05-19T09:19:58.824Z,914.00
2023-05-19T09:20:58.835Z,920.00
2023-05-19T09:21:58.841Z,925.00
2023-05-19T09:22:58.845Z,915.00
2023-05-19T09:23:58.836Z,910.00
2023-05-19T09:24:58.856Z,917.00
2023-05-19T09:25:58.827Z,921.00
2023-05-19T09:27:00.114Z,941.00
2023-05-19T09:27:58.841Z,940.00
2023-05-19T09:28:58.847Z,940.00
2023-05-19T09:29:58.825Z,983.00
2023-05-19T09:30:58.823Z,970.00
2023-05-19T09:31:58.933Z,991.00
2023-05-19T09:32:58.963Z,997.00
2023-05-19T09:33:59.016Z,958.00
2023-05-19T09:34:59.066Z,995.00
2023-05-19T09:35:59.135Z,995.00
2023-05-19T09:36:59.205Z,1028.00
2023-05-19T09:37:59.241Z,1008.00
2023-05-19T09:38:59.303Z,1024.00
2023-05-19T09:39:59.300Z,1025.00
2023-05-19T09:40:59.312Z,1018.00
2023-05-19T09:41:59.296Z,1015.00
2023-05-19T09:42:59.270Z,1047.00
2023-05-19T09:43:59.285Z,1031.00
2023-05-19T09:44:59.309Z,1067.00
2023-05-19T09:45:59.310Z,1076.00
2023-05-19T09:46:59.273Z,1061.00
2023-05-19T09:47:59.289Z,1054.00
2023-05-19T09:48:59.331Z,1045.00
2023-05-19T09:49:59.437Z,1081.00
2023-05-19T09:50:59.448Z,1077.00
2023-05-19T09:51:59.530Z,1051.00
2023-05-19T09:52:59.533Z,1111.00
2023-05-19T09:53:59.624Z,1093.00
2023-05-19T09:54:59.643Z,1089.00
2023-05-19T09:55:59.710Z,1109.00
2023-05-19T09:56:59.866Z,1081.00
2023-05-19T09:57:59.812Z,1109.00
2023-05-19T09:58:59.874Z,1098.00
2023-05-19T09:59:59.903Z,1103.00
2023-05-19T10:00:59.986Z,1118.00
2023-05-19T10:02:00.005Z,1118.00
2023-05-19T10:03:00.176Z,1117.00
2023-05-19T10:04:00.145Z,1107.00
2023-05-19T10:05:00.309Z,1119.00
2023-05-19T10:06:00.162Z,1120.00
2023-05-19T10:07:00.326Z,1141.00
2023-05-19T10:08:00.274Z,1143.00
2023-05-19T10:09:00.293Z,1131.00
2023-05-19T10:10:00.353Z,1126.00
2023-05-19T10:11:00.361Z,1140.00
2023-05-19T10:12:00.402Z,1126.00
2023-05-19T10:13:00.443Z,1150.00
2023-05-19T10:14:00.468Z,1139.00
2023-05-19T10:15:00.487Z,1152.00
2023-05-19T10:16:00.858Z,1167.00
2023-05-19T10:17:00.705Z,1163.00
2023-05-19T10:18:00.600Z,1156.00
2023-05-19T10:19:00.633Z,1160.00
2023-05-19T10:20:00.643Z,1178.00
2023-05-19T10:21:00.688Z,1179.00
2023-05-19T10:22:00.737Z,1204.00
2023-05-19T10:23:00.748Z,1171.00
2023-05-19T10:24:00.788Z,1199.00
2023-05-19T10:25:00.825Z,1161.00
2023-05-19T10:26:00.784Z,1162.00
2023-05-19T10:27:00.788Z,1169.00
2023-05-19T10:28:00.746Z,1175.00
2023-05-19T10:29:00.793Z,1189.00
2023-05-19T10:30:00.756Z,1192.00
2023-05-19T10:31:00.729Z,1189.00
2023-05-19T10:32:00.716Z,1186.00
2023-05-19T10:33:00.713Z,1194.00
2023-05-19T10:34:00.677Z,1206.00
2023-05-19T10:35:00.677Z,1216.00
2023-05-19T10:36:00.661Z,1214.00
2023-05-19T10:37:00.715Z,1189.00
2023-05-19T10:38:00.730Z,1202.00
2023-05-19T10:39:00.748Z,1204.00
2023-05-19T10:40:00.777Z,1219.00
2023-05-19T10:41:00.827Z,1216.00
2023-05-19T10:42:00.851Z,1228.00
2023-05-19T10:43:00.870Z,1217.00
2023-05-19T10:44:00.930Z,1219.00
2023-05-19T10:45:01.028Z,1226.00
2023-05-19T10:46:00.957Z,1241.00
2023-05-19T10:47:01.021Z,1230.00
2023-05-19T10:48:01.083Z,1230.00
2023-05-19T10:49:01.084Z,1240.00
2023-05-19T10:50:01.097Z,1245.00
2023-05-19T10:51:01.147Z,1247.00
2023-05-19T10:52:01.207Z,1253.00
2023-05-19T10:53:01.258Z,1241.00
2023-05-19T10:54:01.288Z,1230.00
2023-05-19T10:55:01.297Z,1257.00
2023-05-19T10:56:01.365Z,1248.00
2023-05-19T10:57:01.364Z,1243.00
2023-05-19T10:58:01.421Z,1244.00
2023-05-19T10:59:01.442Z,1261.00
2023-05-19T11:00:01.500Z,1257.00
2023-05-19T11:01:01.644Z,1268.00
2023-05-19T11:02:01.580Z,1264.00
2023-05-19T11:03:01.631Z,1257.00
2023-05-19T11:04:01.762Z,1284.00
2023-05-19T11:05:01.673Z,1271.00
2023-05-19T11:06:01.668Z,1271.00
2023-05-19T11:07:01.697Z,1253.00
2023-05-19T11:08:01.750Z,1266.00
2023-05-19T11:09:01.762Z,1277.00
2023-05-19T11:10:01.793Z,1275.00
2023-05-19T11:11:01.812Z,1290.00
2023-05-19T11:12:01.886Z,1270.00
2023-05-19T11:13:01.890Z,1266.00
2023-05-19T11:14:01.924Z,1283.00
2023-05-19T11:15:01.995Z,1282.00
2023-05-19T11:16:01.976Z,1278.00
2023-05-19T11:17:02.076Z,1282.00
2023-05-19T11:18:02.112Z,1275.00
2023-05-19T11:19:02.154Z,1288.00
2023-05-19T11:20:02.109Z,1273.00
2023-05-19T11:21:02.313Z,1289.00
2023-05-19T11:22:02.183Z,1287.00
2023-05-19T11:23:02.271Z,1283.00
2023-05-19T11:24:02.448Z,1293.00
2023-05-19T11:25:02.278Z,1276.00
2023-05-19T11:26:02.330Z,1292.00
2023-05-19T11:27:02.381Z,1281.00
2023-05-19T11:28:02.397Z,1277.00
2023-05-19T11:29:02.400Z,1283.00
2023-05-19T11:30:02.478Z,1288.00
2023-05-19T11:31:02.492Z,1278.00
2023-05-19T11:32:02.579Z,1304.00
2023-05-19T11:33:02.566Z,1282.00
2023-05-19T11:34:02.569Z,1300.00
2023-05-19T11:35:02.617Z,1307.00
2023-05-19T11:36:02.655Z,1299.00
2023-05-19T11:37:02.689Z,1291.00
2023-05-19T11:38:02.702Z,1301.00
2023-05-19T11:39:02.752Z,1282.00
2023-05-19T11:40:02.775Z,1302.00
2023-05-19T11:41:02.816Z,1305.00
2023-05-19T11:42:02.857Z,1293.00
2023-05-19T11:43:02.877Z,1318.00
2023-05-19T11:44:02.907Z,1305.00
2023-05-19T11:45:02.915Z,1304.00
2023-05-19T11:46:03.002Z,1316.00
2023-05-19T11:47:02.998Z,1305.00
2023-05-19T11:48:03.579Z,1317.00
2023-05-19T11:49:03.080Z,1312.00
2023-05-19T11:50:03.114Z,1302.00
2023-05-19T11:51:03.168Z,1321.00
2023-05-19T11:52:03.237Z,1316.00
2023-05-19T11:53:03.236Z,1310.00
2023-05-19T11:54:03.284Z,1308.00
2023-05-19T11:55:03.321Z,1317.00
2023-05-19T11:56:03.359Z,1319.00
2023-05-19T11:57:03.413Z,1311.00
2023-05-19T11:58:05.070Z,1310.00
2023-05-19T11:59:03.457Z,1308.00
2023-05-19T12:00:03.514Z,1308.00
2023-05-19T12:01:03.540Z,1305.00
2023-05-19T12:02:03.567Z,1330.00
2023-05-19T12:03:03.603Z,1314.00
2023-05-19T12:04:03.623Z,1323.00
2023-05-19T12:05:03.701Z,1319.00
2023-05-19T12:06:03.606Z,1315.00
2023-05-19T12:07:03.666Z,1318.00
2023-05-19T12:08:03.605Z,1317.00
2023-05-19T12:09:03.614Z,1310.00
2023-05-19T12:10:03.634Z,1310.00
2023-05-19T12:11:03.631Z,1319.00
2023-05-19T12:12:03.696Z,1313.00
2023-05-19T12:13:03.668Z,1313.00
2023-05-19T12:14:03.719Z,1318.00